createdAt,value
2022-10-09T00:01:20.972Z,5.87
2022-10-09T00:03:50.856Z,6.33
2022-10-09T00:06:22.132Z,6.43
2022-10-09T00:08:50.497Z,5.50
2022-10-09T00:11:22.732Z,6.37
2022-10-09T00:13:51.275Z,6.77
2022-10-09T00:16:21.578Z,6.00
2022-10-09T00:18:49.928Z,5.57
2022-10-09T00:21:23.699Z,6.10
2022-10-09T00:23:52.998Z,6.87
2022-10-09T00:26:22.959Z,6.30
2022-10-09T00:28:51.342Z,5.93
2022-10-09T00:31:20.472Z,6.40
2022-10-09T00:33:48.854Z,6.67
2022-10-09T00:36:18.993Z,6.77
2022-10-09T00:38:47.194Z,7.03
2022-10-09T00:41:17.690Z,7.00
2022-10-09T00:43:50.086Z,7.67
2022-10-09T00:46:35.663Z,8.50
2022-10-09T00:49:16.338Z,7.17
2022-10-09T00:51:47.362Z,7.30
2022-10-09T00:54:18.298Z,8.70
2022-10-09T00:56:46.511Z,8.33
2022-10-09T00:59:17.727Z,8.93
2022-10-09T01:01:46.421Z,8.80
2022-10-09T01:04:14.679Z,8.20
2022-10-09T01:06:58.123Z,8.00
2022-10-09T01:09:33.271Z,7.70
2022-10-09T01:12:09.171Z,8.60
2022-10-09T01:14:45.124Z,8.50
2022-10-09T01:17:24.128Z,8.20
2022-10-09T01:20:07.130Z,8.57
2022-10-09T01:22:47.700Z,7.93
2022-10-09T01:25:23.368Z,7.93
2022-10-09T01:27:53.065Z,8.00
2022-10-09T01:30:21.279Z,8.40
2022-10-09T01:32:52.083Z,9.40
2022-10-09T01:35:21.792Z,9.37
2022-10-09T01:37:51.982Z,10.03
2022-10-09T01:40:21.116Z,9.13
2022-10-09T01:42:49.513Z,7.67
2022-10-09T01:45:19.380Z,8.40
2022-10-09T01:47:47.624Z,7.60
2022-10-09T01:50:22.915Z,7.27
2022-10-09T01:52:54.568Z,7.80
2022-10-09T01:55:37.464Z,7.57
2022-10-09T01:58:12.117Z,6.90
2022-10-09T02:00:46.896Z,7.20
2022-10-09T02:03:17.404Z,6.27
2022-10-09T02:05:47.473Z,7.17
2022-10-09T02:08:19.528Z,6.40
2022-10-09T02:10:51.487Z,6.53
2022-10-09T02:13:20.278Z,6.37
2022-10-09T02:15:52.613Z,6.60
2022-10-09T02:18:26.904Z,6.17
2022-10-09T02:20:59.871Z,6.30
2022-10-09T02:23:29.378Z,6.90
2022-10-09T02:25:57.913Z,6.20
2022-10-09T02:28:26.803Z,6.07
2022-10-09T02:31:03.125Z,6.17
2022-10-09T02:33:34.991Z,6.80
2022-10-09T02:36:03.659Z,5.93
2022-10-09T02:38:32.022Z,5.70
2022-10-09T02:41:01.103Z,6.20
2022-10-09T02:43:30.433Z,5.87
2022-10-09T02:46:00.130Z,5.83
2022-10-09T02:48:28.393Z,6.33
2022-10-09T02:50:56.726Z,5.97
2022-10-09T02:53:24.951Z,6.23
2022-10-09T02:55:53.204Z,5.90
2022-10-09T02:58:21.616Z,6.03
2022-10-09T03:00:50.325Z,5.83
2022-10-09T03:03:20.480Z,6.40
2022-10-09T03:05:48.732Z,5.53
2022-10-09T03:08:16.884Z,6.73
2022-10-09T03:10:45.054Z,5.73
2022-10-09T03:13:13.170Z,5.97
2022-10-09T03:15:41.431Z,6.07
2022-10-09T03:18:09.633Z,6.10
2022-10-09T03:20:39.578Z,5.57
2022-10-09T03:23:07.655Z,6.10
2022-10-09T03:25:35.875Z,6.43
2022-10-09T03:28:04.116Z,5.77
2022-10-09T03:30:32.306Z,5.63
2022-10-09T03:33:00.594Z,5.80
2022-10-09T03:35:28.701Z,5.83
2022-10-09T03:37:58.281Z,6.33
2022-10-09T03:40:26.416Z,6.40
2022-10-09T03:42:54.552Z,5.80
2022-10-09T03:45:22.657Z,5.80
2022-10-09T03:47:50.882Z,5.80
2022-10-09T03:50:18.991Z,5.43
2022-10-09T03:52:47.448Z,5.77
2022-10-09T03:55:17.259Z,6.10
2022-10-09T03:57:45.464Z,6.17
2022-10-09T04:00:14.918Z,5.57
2022-10-09T04:02:43.276Z,5.97
2022-10-09T04:05:11.459Z,6.13
2022-10-09T04:07:40.174Z,5.80
2022-10-09T04:10:08.936Z,6.10
2022-10-09T04:12:38.932Z,5.73
2022-10-09T04:15:08.002Z,6.30
2022-10-09T04:17:36.259Z,5.83
2022-10-09T04:20:04.976Z,6.87
2022-10-09T04:22:33.179Z,6.83
2022-10-09T04:25:01.345Z,6.87
2022-10-09T04:27:29.840Z,6.67
2022-10-09T04:29:59.355Z,6.70
2022-10-09T04:32:27.521Z,6.57
2022-10-09T04:34:55.704Z,6.73
2022-10-09T04:37:23.927Z,7.50
2022-10-09T04:39:52.084Z,7.67
2022-10-09T04:42:20.317Z,8.00
2022-10-09T04:44:48.470Z,7.70
2022-10-09T04:47:18.475Z,7.17
2022-10-09T04:49:46.666Z,6.97
2022-10-09T04:52:14.831Z,6.90
2022-10-09T04:54:44.420Z,7.40
2022-10-09T04:57:12.558Z,8.40
2022-10-09T04:59:40.811Z,7.80
2022-10-09T05:02:09.057Z,7.57
2022-10-09T05:04:38.824Z,6.90
2022-10-09T05:07:07.182Z,6.57
2022-10-09T05:09:35.313Z,6.80
2022-10-09T05:12:03.437Z,6.70
2022-10-09T05:14:31.756Z,6.10
2022-10-09T05:17:22.976Z,7.33
2022-10-09T05:19:53.258Z,6.80
2022-10-09T05:22:21.381Z,7.43
2022-10-09T05:24:49.591Z,6.50
2022-10-09T05:27:17.762Z,6.47
2022-10-09T05:29:45.912Z,6.97
2022-10-09T05:32:14.734Z,12.10
2022-10-09T05:34:43.152Z,23.13
2022-10-09T05:37:12.692Z,16.13
2022-10-09T05:39:40.905Z,9.20
2022-10-09T05:42:10.305Z,9.00
2022-10-09T05:44:38.454Z,8.03
2022-10-09T05:47:06.671Z,8.87
2022-10-09T05:49:34.903Z,8.80
2022-10-09T05:52:03.133Z,9.33
2022-10-09T05:54:32.706Z,9.73
2022-10-09T05:57:00.880Z,10.40
2022-10-09T05:59:29.123Z,9.93
2022-10-09T06:01:57.352Z,10.30
2022-10-09T06:04:26.374Z,10.50
2022-10-09T06:06:55.540Z,11.40
2022-10-09T06:09:26.129Z,13.67
2022-10-09T06:11:56.417Z,14.00
2022-10-09T06:14:25.119Z,12.77
2022-10-09T06:16:53.604Z,11.37
2022-10-09T06:19:21.896Z,10.87
2022-10-09T06:21:50.612Z,10.83
2022-10-09T06:24:25.575Z,10.50
2022-10-09T06:26:57.777Z,9.60
2022-10-09T06:29:26.164Z,9.80
2022-10-09T06:31:54.412Z,9.07
2022-10-09T06:34:22.791Z,9.50
2022-10-09T06:36:50.986Z,9.37
2022-10-09T06:39:19.328Z,9.57
2022-10-09T06:41:47.608Z,9.47
2022-10-09T06:44:17.512Z,9.13
2022-10-09T06:46:46.880Z,9.90
2022-10-09T06:49:15.093Z,10.90
2022-10-09T06:51:43.237Z,11.50
2022-10-09T06:54:13.472Z,14.17
2022-10-09T06:56:41.732Z,14.03
2022-10-09T06:59:11.070Z,14.83
2022-10-09T07:01:40.813Z,15.63
2022-10-09T07:04:11.733Z,17.27
2022-10-09T07:06:42.072Z,19.27
2022-10-09T07:09:12.049Z,17.73
2022-10-09T07:11:43.117Z,18.30
2022-10-09T07:14:12.833Z,16.57
2022-10-09T07:16:44.340Z,16.60
2022-10-09T07:19:14.001Z,18.83
2022-10-09T07:21:43.611Z,18.30
2022-10-09T07:24:12.957Z,18.03
2022-10-09T07:26:43.301Z,18.60
2022-10-09T07:29:13.205Z,18.83
2022-10-09T07:31:43.064Z,18.47
2022-10-09T07:34:11.427Z,18.63
2022-10-09T07:36:39.616Z,18.00
2022-10-09T07:39:07.888Z,18.73
2022-10-09T07:41:36.500Z,17.97
2022-10-09T07:44:04.742Z,18.63
2022-10-09T07:46:34.203Z,18.10
2022-10-09T07:49:04.946Z,19.07
2022-10-09T07:51:33.815Z,19.23
2022-10-09T07:54:02.932Z,18.90
2022-10-09T07:56:32.754Z,19.73
2022-10-09T07:59:02.647Z,19.83
2022-10-09T08:01:32.079Z,19.17
2022-10-09T08:04:01.155Z,19.23
2022-10-09T08:06:31.322Z,19.50
2022-10-09T08:09:00.795Z,18.53
2022-10-09T08:11:31.012Z,18.57
2022-10-09T08:13:59.754Z,18.50
2022-10-09T08:16:29.288Z,18.17
2022-10-09T08:18:59.162Z,17.60
2022-10-09T08:21:28.361Z,17.47
2022-10-09T08:23:59.824Z,16.60
2022-10-09T08:26:30.369Z,16.13
2022-10-09T08:29:00.307Z,16.70
2022-10-09T08:31:29.468Z,15.97
2022-10-09T08:33:59.117Z,16.93
2022-10-09T08:36:27.996Z,15.97
2022-10-09T08:38:57.611Z,16.23
2022-10-09T08:41:43.755Z,15.03
2022-10-09T08:44:17.985Z,13.33
2022-10-09T08:47:09.665Z,15.07
2022-10-09T08:49:46.063Z,13.93
2022-10-09T08:52:24.780Z,13.23
2022-10-09T08:54:57.007Z,12.53
2022-10-09T08:57:28.148Z,14.17
2022-10-09T08:59:57.551Z,16.83
2022-10-09T09:03:08.235Z,16.97
2022-10-09T09:05:45.836Z,19.23
2022-10-09T09:08:24.184Z,19.90
2022-10-09T09:11:06.431Z,21.13
2022-10-09T09:13:46.191Z,23.50
2022-10-09T09:16:26.297Z,23.27
2022-10-09T09:19:07.058Z,24.23
2022-10-09T09:21:42.671Z,20.77
2022-10-09T09:24:16.108Z,21.70
2022-10-09T09:26:49.431Z,22.90
2022-10-09T09:29:22.836Z,23.30
2022-10-09T09:31:54.136Z,21.77
2022-10-09T09:34:26.308Z,21.00
2022-10-09T09:36:58.421Z,20.30
2022-10-09T09:40:30.875Z,20.43
2022-10-09T09:42:20.431Z,18.97
2022-10-09T09:44:55.278Z,19.83
2022-10-09T09:47:31.283Z,18.97
2022-10-09T09:50:01.545Z,17.37
2022-10-09T09:52:32.810Z,18.37
2022-10-09T09:55:01.332Z,16.37
2022-10-09T09:57:35.154Z,16.73
2022-10-09T10:00:22.395Z,16.90
2022-10-09T10:02:51.913Z,17.23
2022-10-09T10:05:26.190Z,16.63
2022-10-09T10:07:57.668Z,16.70
2022-10-09T10:10:27.952Z,16.03
2022-10-09T10:12:59.942Z,16.23
2022-10-09T10:15:29.698Z,16.90
2022-10-09T10:18:01.921Z,17.03
2022-10-09T10:20:32.116Z,17.23
2022-10-09T10:23:01.140Z,18.83
2022-10-09T10:25:33.535Z,18.03
2022-10-09T10:28:12.226Z,17.50
2022-10-09T10:30:41.759Z,17.50
2022-10-09T10:33:19.691Z,17.70
2022-10-09T10:35:52.825Z,16.60
2022-10-09T10:38:26.946Z,16.93
2022-10-09T10:40:59.947Z,18.63
2022-10-09T10:43:37.017Z,18.50
2022-10-09T10:46:13.427Z,17.17
2022-10-09T10:48:43.136Z,19.27
2022-10-09T10:51:36.755Z,18.47
2022-10-09T10:54:18.393Z,17.60
2022-10-09T10:56:50.336Z,16.40
2022-10-09T10:59:34.810Z,16.83
2022-10-09T11:02:32.572Z,16.33
2022-10-09T11:05:11.986Z,14.23
2022-10-09T11:07:50.770Z,14.93
2022-10-09T11:10:33.986Z,14.47
2022-10-09T11:13:07.999Z,13.83
2022-10-09T11:15:49.693Z,16.20
2022-10-09T11:18:30.107Z,15.67
2022-10-09T11:21:15.671Z,14.00
2022-10-09T11:23:56.788Z,15.93
2022-10-09T11:26:34.219Z,15.97
2022-10-09T11:29:06.057Z,16.13
2022-10-09T11:31:41.894Z,14.43
2022-10-09T11:34:15.843Z,14.70
2022-10-09T11:36:46.568Z,14.37
2022-10-09T11:39:18.386Z,14.03
2022-10-09T11:41:48.640Z,14.50
2022-10-09T11:44:48.229Z,14.77
2022-10-09T11:47:24.570Z,14.70
2022-10-09T11:50:08.240Z,14.00
2022-10-09T11:52:44.853Z,14.20
2022-10-09T11:55:21.762Z,13.33
2022-10-09T11:57:50.696Z,13.77
2022-10-09T12:00:30.782Z,14.80
2022-10-09T12:03:03.082Z,13.83
2022-10-09T12:05:42.166Z,13.53
2022-10-09T12:08:15.403Z,13.07
2022-10-09T12:10:54.086Z,14.37
2022-10-09T12:13:32.137Z,13.00
2022-10-09T12:16:01.358Z,12.90
2022-10-09T12:18:33.312Z,13.40
2022-10-09T12:21:06.495Z,10.17
2022-10-09T12:23:37.584Z,11.33
2022-10-09T12:26:06.773Z,10.57
2022-10-09T12:28:39.099Z,11.67
2022-10-09T12:31:16.937Z,11.70
2022-10-09T12:33:49.072Z,12.80
2022-10-09T12:36:24.335Z,10.33
2022-10-09T12:38:52.554Z,10.30
2022-10-09T12:41:24.981Z,10.37
2022-10-09T12:43:55.493Z,10.57
2022-10-09T12:46:29.850Z,10.23
2022-10-09T12:49:00.605Z,8.83
2022-10-09T12:51:31.656Z,9.00
2022-10-09T12:54:00.258Z,8.83
2022-10-09T12:56:33.533Z,9.83
2022-10-09T12:59:02.724Z,9.60
2022-10-09T13:01:31.465Z,10.33
2022-10-09T13:04:04.350Z,9.90
2022-10-09T13:06:39.085Z,10.03
2022-10-09T13:09:09.781Z,9.03
2022-10-09T13:11:40.702Z,9.50
2022-10-09T13:14:24.138Z,9.70
2022-10-09T13:16:52.464Z,8.17
2022-10-09T13:19:26.578Z,8.30
2022-10-09T13:22:22.515Z,9.07
2022-10-09T13:24:53.243Z,8.77
2022-10-09T13:27:21.923Z,9.27
2022-10-09T13:29:50.595Z,9.37
2022-10-09T13:32:19.792Z,10.57
2022-10-09T13:34:49.888Z,10.63
2022-10-09T13:37:20.232Z,10.43
2022-10-09T13:39:48.410Z,10.37
2022-10-09T13:42:18.224Z,10.70
2022-10-09T13:44:46.532Z,9.63
2022-10-09T13:47:14.740Z,10.20
2022-10-09T13:49:43.052Z,9.53
2022-10-09T13:52:12.853Z,10.10
2022-10-09T13:54:41.031Z,9.73
2022-10-09T13:57:09.313Z,10.10
2022-10-09T13:59:38.000Z,10.63
2022-10-09T14:02:06.187Z,11.97
2022-10-09T14:04:34.303Z,11.33
2022-10-09T14:07:02.448Z,10.43
2022-10-09T14:09:32.100Z,10.77
2022-10-09T14:12:00.208Z,10.40
2022-10-09T14:14:28.388Z,10.77
2022-10-09T14:16:56.565Z,9.43
2022-10-09T14:19:27.424Z,8.70
2022-10-09T14:21:55.577Z,9.10
2022-10-09T14:24:24.130Z,8.80
2022-10-09T14:26:53.722Z,9.00
2022-10-09T14:29:21.980Z,9.30
2022-10-09T14:31:51.416Z,9.57
2022-10-09T14:34:19.604Z,9.53
2022-10-09T14:36:47.902Z,10.10
2022-10-09T14:39:16.972Z,10.13
2022-10-09T14:41:45.892Z,8.90
2022-10-09T14:44:15.468Z,9.23
2022-10-09T14:46:43.646Z,9.63
2022-10-09T14:49:12.321Z,9.80
2022-10-09T14:51:41.779Z,9.57
2022-10-09T14:54:11.710Z,7.73
2022-10-09T14:56:40.103Z,8.10
2022-10-09T14:59:08.376Z,9.17
2022-10-09T15:01:38.023Z,8.27
2022-10-09T15:04:07.040Z,8.60
2022-10-09T15:06:35.662Z,9.60
2022-10-09T15:09:06.166Z,9.17
2022-10-09T15:11:35.790Z,9.23
2022-10-09T15:14:06.360Z,8.93
2022-10-09T15:16:35.322Z,8.43
2022-10-09T15:19:05.794Z,8.70
2022-10-09T15:21:35.919Z,9.07
2022-10-09T15:24:05.573Z,8.30
2022-10-09T15:26:36.746Z,7.47
2022-10-09T15:29:07.245Z,8.80
2022-10-09T15:31:37.040Z,7.30
2022-10-09T15:34:08.068Z,7.13
2022-10-09T15:36:39.681Z,6.53
2022-10-09T15:39:08.997Z,7.80
2022-10-09T15:41:39.053Z,7.23
2022-10-09T15:44:09.007Z,8.20
2022-10-09T15:46:37.143Z,8.13
2022-10-09T15:49:07.814Z,7.07
2022-10-09T15:51:36.327Z,6.77
2022-10-09T15:54:04.883Z,7.87
2022-10-09T15:56:37.447Z,7.87
2022-10-09T15:59:07.975Z,7.30
2022-10-09T16:01:36.071Z,6.40
2022-10-09T16:04:04.323Z,6.80
2022-10-09T16:06:33.809Z,7.13
2022-10-09T16:09:03.990Z,6.97
2022-10-09T16:11:32.219Z,6.67
2022-10-09T16:14:00.649Z,6.40
2022-10-09T16:16:29.099Z,6.90
2022-10-09T16:18:58.087Z,6.27
2022-10-09T16:21:28.222Z,6.43
2022-10-09T16:23:59.612Z,6.33
2022-10-09T16:26:29.254Z,6.30
2022-10-09T16:28:57.512Z,6.00
2022-10-09T16:31:28.098Z,6.17
2022-10-09T16:33:56.331Z,5.87
2022-10-09T16:36:24.788Z,5.27
2022-10-09T16:38:53.044Z,5.80
2022-10-09T16:41:24.106Z,5.80
2022-10-09T16:43:54.385Z,5.23
2022-10-09T16:46:24.542Z,6.20
2022-10-09T16:48:54.335Z,6.00
2022-10-09T16:51:24.572Z,6.43
2022-10-09T16:53:53.976Z,6.00
2022-10-09T16:56:25.246Z,5.70
2022-10-09T16:58:56.695Z,6.23
2022-10-09T17:01:25.424Z,5.87
2022-10-09T17:03:55.440Z,6.30
2022-10-09T17:06:24.550Z,6.73
2022-10-09T17:08:53.757Z,7.40
2022-10-09T17:11:23.883Z,5.70
2022-10-09T17:13:53.543Z,5.57
2022-10-09T17:16:23.683Z,6.47
2022-10-09T17:18:53.028Z,5.87
2022-10-09T17:21:21.544Z,6.37
2022-10-09T17:23:53.506Z,6.03
2022-10-09T17:26:24.843Z,6.10
2022-10-09T17:28:53.809Z,6.50
2022-10-09T17:31:23.931Z,6.73
2022-10-09T17:33:56.239Z,6.90
2022-10-09T17:36:27.334Z,8.50
2022-10-09T17:38:55.806Z,7.17
2022-10-09T17:41:27.343Z,9.83
2022-10-09T17:43:57.223Z,8.63
2022-10-09T17:46:26.988Z,7.80
2022-10-09T17:48:56.833Z,7.60
2022-10-09T17:51:26.801Z,7.40
2022-10-09T17:56:33.166Z,7.97
2022-10-09T17:59:02.935Z,10.20
2022-10-09T18:01:31.700Z,12.90
2022-10-09T18:04:00.017Z,12.70
2022-10-09T18:06:28.468Z,12.20
2022-10-09T18:08:57.998Z,9.57
2022-10-09T18:11:28.556Z,7.70
2022-10-09T18:13:58.839Z,6.77
2022-10-09T18:16:35.982Z,7.13
2022-10-09T18:19:06.435Z,6.20
2022-10-09T18:21:35.737Z,6.87
2022-10-09T18:24:04.092Z,6.23
2022-10-09T18:26:32.251Z,8.23
2022-10-09T18:29:02.887Z,9.27
2022-10-09T18:31:31.341Z,13.27
2022-10-09T18:34:00.199Z,18.53
2022-10-09T18:36:33.562Z,6.70
2022-10-09T18:39:03.676Z,7.30
2022-10-09T18:41:31.883Z,7.07
2022-10-09T18:44:02.362Z,5.70
2022-10-09T18:46:35.209Z,5.23
2022-10-09T18:49:04.149Z,5.50
2022-10-09T18:51:32.918Z,5.27
2022-10-09T18:54:03.840Z,5.80
2022-10-09T18:56:34.222Z,5.77
2022-10-09T18:59:07.945Z,5.50
2022-10-09T19:01:36.257Z,5.80
2022-10-09T19:04:04.462Z,5.93
2022-10-09T19:06:32.654Z,5.80
2022-10-09T19:09:01.736Z,5.70
2022-10-09T19:11:30.899Z,5.13
2022-10-09T19:14:00.712Z,5.53
2022-10-09T19:16:32.391Z,5.83
2022-10-09T19:19:01.296Z,13.53
2022-10-09T19:21:29.579Z,8.80
2022-10-09T19:24:03.342Z,7.40
2022-10-09T19:26:32.776Z,6.70
2022-10-09T19:29:01.124Z,6.00
2022-10-09T19:31:32.032Z,6.40
2022-10-09T19:34:01.114Z,6.10
2022-10-09T19:36:33.086Z,7.13
2022-10-09T19:39:01.555Z,6.00
2022-10-09T19:41:29.875Z,6.20
2022-10-09T19:43:58.190Z,6.17
2022-10-09T19:46:26.868Z,6.67
2022-10-09T19:48:56.511Z,6.90
2022-10-09T19:51:27.683Z,6.27
2022-10-09T19:53:56.146Z,6.03
2022-10-09T19:56:26.711Z,6.60
2022-10-09T19:58:56.129Z,6.10
2022-10-09T20:01:26.502Z,6.00
2022-10-09T20:03:58.107Z,5.70
2022-10-09T20:06:26.424Z,5.93
2022-10-09T20:08:55.276Z,5.93
2022-10-09T20:11:23.636Z,6.33
2022-10-09T20:13:55.695Z,5.87
2022-10-09T20:16:25.385Z,5.57
2022-10-09T20:18:55.044Z,5.53
2022-10-09T20:21:24.703Z,5.70
2022-10-09T20:23:53.049Z,5.73
2022-10-09T20:26:22.545Z,5.67
2022-10-09T20:28:52.390Z,5.63
2022-10-09T20:31:22.814Z,6.47
2022-10-09T20:33:51.642Z,5.70
2022-10-09T20:36:21.404Z,5.70
2022-10-09T20:38:51.460Z,5.87
2022-10-09T20:41:20.564Z,5.80
2022-10-09T20:43:52.057Z,6.07
2022-10-09T20:46:21.170Z,5.90
2022-10-09T20:48:49.707Z,6.20
2022-10-09T20:51:19.168Z,5.30
2022-10-09T20:53:47.913Z,5.90
2022-10-09T20:56:17.376Z,5.40
2022-10-09T20:58:45.550Z,5.63
2022-10-09T21:01:15.354Z,5.40
2022-10-09T21:03:44.215Z,6.63
2022-10-09T21:06:15.811Z,6.10
2022-10-09T21:08:44.044Z,5.70
2022-10-09T21:11:16.483Z,5.43
2022-10-09T21:13:46.890Z,5.77
2022-10-09T21:16:17.445Z,6.00
2022-10-09T21:18:45.653Z,5.90
2022-10-09T21:21:16.084Z,5.93
2022-10-09T21:23:45.363Z,5.63
2022-10-09T21:26:15.541Z,6.10
2022-10-09T21:28:45.297Z,5.83
2022-10-09T21:31:16.331Z,6.73
2022-10-09T21:33:44.508Z,5.83
2022-10-09T21:36:17.261Z,6.50
2022-10-09T21:38:45.396Z,6.73
2022-10-09T21:41:13.496Z,7.03
2022-10-09T21:43:41.793Z,6.60
2022-10-09T21:46:11.352Z,6.67
2022-10-09T21:48:39.566Z,7.30
2022-10-09T21:51:07.972Z,7.13
2022-10-09T21:53:36.243Z,7.03
2022-10-09T21:56:05.138Z,6.60
2022-10-09T21:58:33.581Z,7.10
2022-10-09T22:01:03.172Z,6.77
2022-10-09T22:03:35.159Z,7.80
2022-10-09T22:06:06.406Z,7.53
2022-10-09T22:08:35.409Z,7.97
2022-10-09T22:11:05.322Z,8.10
2022-10-09T22:13:33.728Z,8.20
2022-10-09T22:16:04.997Z,7.83
2022-10-09T22:18:34.732Z,8.17
2022-10-09T22:21:06.606Z,7.50
2022-10-09T22:23:35.245Z,8.03
2022-10-09T22:26:05.848Z,7.67
2022-10-09T22:28:34.826Z,8.17
2022-10-09T22:31:07.322Z,7.93
2022-10-09T22:33:37.667Z,7.87
2022-10-09T22:36:08.426Z,8.47
2022-10-09T22:38:37.659Z,8.23
2022-10-09T22:41:10.664Z,8.17
2022-10-09T22:43:40.141Z,7.57
2022-10-09T22:46:10.332Z,8.30
2022-10-09T22:48:40.906Z,8.73
2022-10-09T22:51:11.245Z,8.87
2022-10-09T22:53:41.154Z,8.70
2022-10-09T22:56:11.267Z,8.97
2022-10-09T22:58:39.899Z,9.43
2022-10-09T23:01:10.489Z,9.23
2022-10-09T23:03:40.183Z,8.73
2022-10-09T23:06:09.936Z,8.50
2022-10-09T23:08:39.512Z,8.77
2022-10-09T23:11:08.254Z,9.67
2022-10-09T23:13:36.992Z,9.37
2022-10-09T23:16:06.973Z,9.07
2022-10-09T23:18:36.254Z,7.93
2022-10-09T23:21:07.121Z,9.43
2022-10-09T23:23:35.272Z,8.70
2022-10-09T23:26:05.270Z,9.30
2022-10-09T23:28:33.604Z,9.07
2022-10-09T23:31:03.032Z,8.97
2022-10-09T23:33:31.175Z,8.93
2022-10-09T23:35:59.417Z,9.33
2022-10-09T23:38:29.071Z,9.37
2022-10-09T23:40:58.153Z,10.03
2022-10-09T23:43:27.070Z,10.03
2022-10-09T23:45:56.565Z,10.40
2022-10-09T23:48:24.903Z,10.47
2022-10-09T23:50:53.940Z,10.03
2022-10-09T23:53:23.098Z,10.37
2022-10-09T23:55:53.113Z,10.50
2022-10-09T23:58:21.686Z,10.60
